PWSweather.com
Personal Weather Stations
Station Observations
KILMORRI1
Goose Lake, Morris, IL 60450

Goose LakeMorris, IL 60450

Lat: 41.34, Lon: -88.3

Elevation: 523

Station Type:

www.gooselakeweather.com

High Low Average
Temperature 59.6°F15.3°C 33.0°F0.6°C 47.0°F8.3°C
Dew Point 49.0°F9.4°C 28.1°F-2.2°C 38.4°F3.6°C
Winds 13.8 mph 22.2 kmh 3.5 mph 5.6 kmh 9.0 mph S14.5 kmh S
Wind Gusts 27.6 mph44.4 kmh 4.6 mph7.4 kmh 14.0 mph22.5 kmh
Humidity 83% 45% 73%
Pressure 30.34 in1027.4 mb 30.05 in1017.6 mb -
Precipitation 0.00 in0.0 mm - -
Hour Temp Dew Point Humidity Winds Wind Gusts Pressure Precip Precip Rate Daily Precip Total
12:00 AM 32.0°F0.0°C 27.7°F-2.4°C 84% 6.9 mph ESE11.1 kmh ESE 9.2 mph14.8 kmh 30.35 in1027.8 mb - 0.00 in0.0 mm 0.01 in0.3 mm
12:10 AM 32.1°F0.1°C 27.5°F-2.5°C 83% 8.1 mph SE13.0 kmh SE 12.7 mph20.4 kmh 30.35 in1027.8 mb - 0.00 in0.0 mm 0.01 in0.3 mm
12:20 AM 32.4°F0.2°C 27.8°F-2.3°C 83% 6.9 mph SE11.1 kmh SE 12.7 mph20.4 kmh 30.35 in1027.8 mb - 0.00 in0.0 mm 0.01 in0.3 mm
12:30 AM 33.1°F0.6°C 28.2°F-2.1°C 82% 10.4 mph SE16.7 kmh SE 13.8 mph22.2 kmh 30.34 in1027.4 mb - 0.00 in0.0 mm 0.01 in0.3 mm
12:40 AM 33.3°F0.7°C 28.1°F-2.2°C 81% 10.4 mph SE16.7 kmh SE 13.8 mph22.2 kmh 30.34 in1027.4 mb - 0.00 in0.0 mm 0.01 in0.3 mm
12:50 AM 33.4°F0.8°C 28.2°F-2.1°C 81% 8.1 mph SE13.0 kmh SE 11.5 mph18.5 kmh 30.34 in1027.4 mb - 0.00 in0.0 mm 0.01 in0.3 mm
01:00 AM 33.5°F0.8°C 28.3°F-2.1°C 81% 10.4 mph SE16.7 kmh SE 15.0 mph24.1 kmh 30.34 in1027.4 mb - 0.00 in0.0 mm 0.00 in0.0 mm
01:10 AM 33.6°F0.9°C 28.1°F-2.2°C 80% 10.4 mph SE16.7 kmh SE 19.6 mph31.5 kmh 30.33 in1027.1 mb - 0.00 in0.0 mm 0.00 in0.0 mm
01:20 AM 33.5°F0.8°C 28.3°F-2.1°C 81% 6.9 mph SE11.1 kmh SE 8.1 mph13.0 kmh 30.33 in1027.1 mb - 0.00 in0.0 mm 0.00 in0.0 mm
01:30 AM 33.4°F0.8°C 28.2°F-2.1°C 81% 8.1 mph SE13.0 kmh SE 11.5 mph18.5 kmh 30.33 in1027.1 mb - 0.00 in0.0 mm 0.00 in0.0 mm
01:40 AM 33.3°F0.7°C 28.1°F-2.2°C 81% 10.4 mph SE16.7 kmh SE 16.1 mph25.9 kmh 30.32 in1026.8 mb - 0.00 in0.0 mm 0.00 in0.0 mm
01:50 AM 33.3°F0.7°C 28.1°F-2.2°C 81% 6.9 mph SE11.1 kmh SE 9.2 mph14.8 kmh 30.32 in1026.8 mb - 0.00 in0.0 mm 0.00 in0.0 mm
02:00 AM 33.1°F0.6°C 28.2°F-2.1°C 82% 8.1 mph SE13.0 kmh SE 13.8 mph22.2 kmh 30.32 in1026.8 mb - 0.00 in0.0 mm 0.00 in0.0 mm
02:10 AM 33.1°F0.6°C 28.2°F-2.1°C 82% 9.2 mph SE14.8 kmh SE 12.7 mph20.4 kmh 30.32 in1026.8 mb - 0.00 in0.0 mm 0.00 in0.0 mm
02:20 AM 33.1°F0.6°C 28.2°F-2.1°C 82% 8.1 mph SSE13.0 kmh SSE 11.5 mph18.5 kmh 30.32 in1026.8 mb - 0.00 in0.0 mm 0.00 in0.0 mm
02:30 AM 33.1°F0.6°C 28.2°F-2.1°C 82% 8.1 mph SE13.0 kmh SE 16.1 mph25.9 kmh 30.32 in1026.8 mb - 0.00 in0.0 mm 0.00 in0.0 mm
02:40 AM 33.0°F0.6°C 28.1°F-2.2°C 82% 8.1 mph SE13.0 kmh SE 9.2 mph14.8 kmh 30.32 in1026.8 mb - 0.00 in0.0 mm 0.00 in0.0 mm
02:50 AM 33.0°F0.6°C 28.1°F-2.2°C 82% 4.6 mph SE7.4 kmh SE 6.9 mph11.1 kmh 30.31 in1026.4 mb - 0.00 in0.0 mm 0.00 in0.0 mm
03:00 AM 33.0°F0.6°C 28.1°F-2.2°C 82% 6.9 mph SSE11.1 kmh SSE 11.5 mph18.5 kmh 30.31 in1026.4 mb - 0.00 in0.0 mm 0.00 in0.0 mm
03:10 AM 33.0°F0.6°C 28.1°F-2.2°C 82% 6.9 mph SE11.1 kmh SE 9.2 mph14.8 kmh 30.30 in1026.1 mb - 0.00 in0.0 mm 0.00 in0.0 mm
03:20 AM 33.0°F0.6°C 28.1°F-2.2°C 82% 8.1 mph SE13.0 kmh SE 10.4 mph16.7 kmh 30.30 in1026.1 mb - 0.00 in0.0 mm 0.00 in0.0 mm
03:30 AM 33.0°F0.6°C 28.1°F-2.2°C 82% 4.6 mph SE7.4 kmh SE 8.1 mph13.0 kmh 30.29 in1025.7 mb - 0.00 in0.0 mm 0.00 in0.0 mm
03:40 AM 33.0°F0.6°C 28.1°F-2.2°C 82% 6.9 mph SE11.1 kmh SE 11.5 mph18.5 kmh 30.29 in1025.7 mb - 0.00 in0.0 mm 0.00 in0.0 mm
03:50 AM 33.1°F0.6°C 28.2°F-2.1°C 82% 6.9 mph SE11.1 kmh SE 11.5 mph18.5 kmh 30.29 in1025.7 mb - 0.00 in0.0 mm 0.00 in0.0 mm
04:00 AM 33.0°F0.6°C 28.1°F-2.2°C 82% 8.1 mph SE13.0 kmh SE 10.4 mph16.7 kmh 30.28 in1025.4 mb - 0.00 in0.0 mm 0.00 in0.0 mm
04:10 AM 33.1°F0.6°C 28.2°F-2.1°C 82% 6.9 mph SE11.1 kmh SE 9.2 mph14.8 kmh 30.28 in1025.4 mb - 0.00 in0.0 mm 0.00 in0.0 mm
04:20 AM 33.4°F0.8°C 28.2°F-2.1°C 81% 5.8 mph SE9.3 kmh SE 8.1 mph13.0 kmh 30.27 in1025.1 mb - 0.00 in0.0 mm 0.00 in0.0 mm
04:30 AM 33.3°F0.7°C 28.1°F-2.2°C 81% 5.8 mph SE9.3 kmh SE 9.2 mph14.8 kmh 30.27 in1025.1 mb - 0.00 in0.0 mm 0.00 in0.0 mm
04:40 AM 33.5°F0.8°C 28.2°F-2.1°C 81% 6.9 mph SE11.1 kmh SE 11.5 mph18.5 kmh 30.27 in1025.1 mb - 0.00 in0.0 mm 0.00 in0.0 mm
04:50 AM 33.3°F0.7°C 28.1°F-2.2°C 81% 4.6 mph SE7.4 kmh SE 6.9 mph11.1 kmh 30.27 in1025.1 mb - 0.00 in0.0 mm 0.00 in0.0 mm
05:00 AM 33.3°F0.7°C 28.4°F-2.0°C 82% 6.9 mph SE11.1 kmh SE 12.7 mph20.4 kmh 30.27 in1025.1 mb - 0.00 in0.0 mm 0.00 in0.0 mm
05:10 AM 33.3°F0.7°C 28.1°F-2.2°C 81% 6.9 mph SE11.1 kmh SE 10.4 mph16.7 kmh 30.27 in1025.1 mb - 0.00 in0.0 mm 0.00 in0.0 mm
05:20 AM 33.4°F0.8°C 28.2°F-2.1°C 81% 5.8 mph SE9.3 kmh SE 8.1 mph13.0 kmh 30.27 in1025.1 mb - 0.00 in0.0 mm 0.00 in0.0 mm
05:30 AM 33.5°F0.8°C 28.3°F-2.1°C 81% 9.2 mph SSE14.8 kmh SSE 13.8 mph22.2 kmh 30.26 in1024.7 mb - 0.00 in0.0 mm 0.00 in0.0 mm
05:40 AM 33.3°F0.7°C 28.1°F-2.2°C 81% 6.9 mph SE11.1 kmh SE 11.5 mph18.5 kmh 30.26 in1024.7 mb - 0.00 in0.0 mm 0.00 in0.0 mm
05:50 AM 33.6°F0.9°C 28.4°F-2.0°C 81% 6.9 mph SE11.1 kmh SE 11.5 mph18.5 kmh 30.26 in1024.7 mb - 0.00 in0.0 mm 0.00 in0.0 mm
06:00 AM 33.7°F0.9°C 28.5°F-1.9°C 81% 9.2 mph SE14.8 kmh SE 15.0 mph24.1 kmh 30.26 in1024.7 mb - 0.00 in0.0 mm 0.00 in0.0 mm
06:10 AM 33.9°F1.1°C 28.4°F-2.0°C 80% 6.9 mph SSE11.1 kmh SSE 9.2 mph14.8 kmh 30.26 in1024.7 mb - 0.00 in0.0 mm 0.00 in0.0 mm
06:20 AM 33.9°F1.1°C 28.4°F-2.0°C 80% 6.9 mph SSE11.1 kmh SSE 9.2 mph14.8 kmh 30.25 in1024.4 mb - 0.00 in0.0 mm 0.00 in0.0 mm
06:30 AM 33.7°F0.9°C 28.5°F-1.9°C 81% 8.1 mph SE13.0 kmh SE 12.7 mph20.4 kmh 30.25 in1024.4 mb - 0.00 in0.0 mm 0.00 in0.0 mm
06:40 AM 33.7°F0.9°C 28.5°F-1.9°C 81% 6.9 mph SSE11.1 kmh SSE 9.2 mph14.8 kmh 30.25 in1024.4 mb - 0.00 in0.0 mm 0.00 in0.0 mm
06:50 AM 34.0°F1.1°C 28.5°F-1.9°C 80% 5.8 mph SSE9.3 kmh SSE 12.7 mph20.4 kmh 30.25 in1024.4 mb - 0.00 in0.0 mm 0.00 in0.0 mm
07:00 AM 34.0°F1.1°C 28.5°F-1.9°C 80% 8.1 mph SSE13.0 kmh SSE 9.2 mph14.8 kmh 30.25 in1024.4 mb - 0.00 in0.0 mm 0.00 in0.0 mm
07:10 AM 34.0°F1.1°C 28.4°F-2.0°C 80% 5.8 mph SSE9.3 kmh SSE 9.2 mph14.8 kmh 30.25 in1024.4 mb - 0.00 in0.0 mm 0.00 in0.0 mm
07:20 AM 34.1°F1.2°C 28.6°F-1.9°C 80% 8.1 mph SSE13.0 kmh SSE 11.5 mph18.5 kmh 30.25 in1024.4 mb - 0.00 in0.0 mm 0.00 in0.0 mm
07:30 AM 34.1°F1.2°C 28.6°F-1.9°C 80% 6.9 mph SE11.1 kmh SE 13.8 mph22.2 kmh 30.25 in1024.4 mb - 0.00 in0.0 mm 0.00 in0.0 mm
07:40 AM 34.5°F1.4°C 28.6°F-1.9°C 79% 10.4 mph SE16.7 kmh SE 11.5 mph18.5 kmh 30.25 in1024.4 mb - 0.00 in0.0 mm 0.00 in0.0 mm
07:50 AM 34.8°F1.6°C 29.0°F-1.7°C 79% 5.8 mph SSE9.3 kmh SSE 9.2 mph14.8 kmh 30.25 in1024.4 mb - 0.00 in0.0 mm 0.00 in0.0 mm
08:00 AM 35.2°F1.8°C 29.0°F-1.7°C 78% 9.2 mph SSE14.8 kmh SSE 13.8 mph22.2 kmh 30.25 in1024.4 mb - 0.00 in0.0 mm 0.00 in0.0 mm
08:10 AM 35.7°F2.1°C 29.5°F-1.4°C 78% 8.1 mph SSE13.0 kmh SSE 11.5 mph18.5 kmh 30.24 in1024.0 mb - 0.00 in0.0 mm 0.00 in0.0 mm
08:20 AM 36.7°F2.6°C 30.1°F-1.1°C 77% 5.8 mph SSE9.3 kmh SSE 12.7 mph20.4 kmh 30.24 in1024.0 mb - 0.00 in0.0 mm 0.00 in0.0 mm
08:30 AM 37.6°F3.1°C 30.4°F-0.9°C 75% 6.9 mph S11.1 kmh S 10.4 mph16.7 kmh 30.24 in1024.0 mb - 0.00 in0.0 mm 0.00 in0.0 mm
08:40 AM 38.8°F3.8°C 31.2°F-0.4°C 74% 8.1 mph S13.0 kmh S 17.3 mph27.8 kmh 30.23 in1023.7 mb - 0.00 in0.0 mm 0.00 in0.0 mm
08:50 AM 39.5°F4.2°C 31.2°F-0.4°C 72% 8.1 mph S13.0 kmh S 13.8 mph22.2 kmh 30.23 in1023.7 mb - 0.00 in0.0 mm 0.00 in0.0 mm
09:00 AM 40.4°F4.7°C 31.7°F-0.2°C 71% 8.1 mph S13.0 kmh S 11.5 mph18.5 kmh 30.23 in1023.7 mb - 0.00 in0.0 mm 0.00 in0.0 mm
09:10 AM 41.7°F5.4°C 32.6°F0.3°C 70% 8.1 mph S13.0 kmh S 15.0 mph24.1 kmh 30.23 in1023.7 mb - 0.00 in0.0 mm 0.00 in0.0 mm
09:20 AM 42.5°F5.8°C 33.1°F0.6°C 69% 6.9 mph S11.1 kmh S 11.5 mph18.5 kmh 30.23 in1023.7 mb - 0.00 in0.0 mm 0.00 in0.0 mm
09:30 AM 42.9°F6.1°C 33.1°F0.6°C 68% 8.1 mph S13.0 kmh S 15.0 mph24.1 kmh 30.22 in1023.4 mb - 0.00 in0.0 mm 0.00 in0.0 mm
09:40 AM 43.6°F6.4°C 33.4°F0.8°C 67% 6.9 mph SSE11.1 kmh SSE 11.5 mph18.5 kmh 30.22 in1023.4 mb - 0.00 in0.0 mm 0.00 in0.0 mm
09:50 AM 44.2°F6.8°C 33.9°F1.1°C 67% 4.6 mph S7.4 kmh S 5.8 mph9.3 kmh 30.22 in1023.4 mb - 0.00 in0.0 mm 0.00 in0.0 mm
10:00 AM 44.8°F7.1°C 34.2°F1.2°C 66% 6.9 mph S11.1 kmh S 9.2 mph14.8 kmh 30.22 in1023.4 mb - 0.00 in0.0 mm 0.00 in0.0 mm
10:10 AM 45.6°F7.6°C 34.5°F1.4°C 65% 5.8 mph S9.3 kmh S 12.7 mph20.4 kmh 30.21 in1023.0 mb - 0.00 in0.0 mm 0.00 in0.0 mm
10:20 AM 46.2°F7.9°C 34.7°F1.5°C 64% 12.7 mph S20.4 kmh S 18.4 mph29.6 kmh 30.21 in1023.0 mb - 0.00 in0.0 mm 0.00 in0.0 mm
10:30 AM 47.0°F8.3°C 35.5°F1.9°C 64% 5.8 mph S9.3 kmh S 10.4 mph16.7 kmh 30.21 in1023.0 mb - 0.00 in0.0 mm 0.00 in0.0 mm
10:40 AM 47.5°F8.6°C 35.1°F1.7°C 62% 6.9 mph S11.1 kmh S 9.2 mph14.8 kmh 30.20 in1022.7 mb - 0.00 in0.0 mm 0.00 in0.0 mm
10:50 AM 48.6°F9.2°C 36.5°F2.5°C 63% 5.8 mph S9.3 kmh S 11.5 mph18.5 kmh 30.20 in1022.7 mb - 0.00 in0.0 mm 0.00 in0.0 mm
11:00 AM 49.7°F9.8°C 36.8°F2.7°C 61% 9.2 mph S14.8 kmh S 11.5 mph18.5 kmh 30.19 in1022.4 mb - 0.00 in0.0 mm 0.00 in0.0 mm
11:10 AM 50.7°F10.4°C 36.9°F2.7°C 59% 10.4 mph S16.7 kmh S 16.1 mph25.9 kmh 30.19 in1022.4 mb - 0.00 in0.0 mm 0.00 in0.0 mm
11:20 AM 51.5°F10.8°C 36.8°F2.7°C 57% 9.2 mph S14.8 kmh S 16.1 mph25.9 kmh 30.19 in1022.4 mb - 0.00 in0.0 mm 0.00 in0.0 mm
11:30 AM 52.1°F11.2°C 37.3°F2.9°C 57% 5.8 mph S9.3 kmh S 12.7 mph20.4 kmh 30.18 in1022.0 mb - 0.00 in0.0 mm 0.00 in0.0 mm
11:40 AM 52.3°F11.3°C 36.6°F2.6°C 55% 8.1 mph S13.0 kmh S 11.5 mph18.5 kmh 30.18 in1022.0 mb - 0.00 in0.0 mm 0.00 in0.0 mm
11:50 AM 52.9°F11.6°C 37.1°F2.8°C 55% 6.9 mph S11.1 kmh S 16.1 mph25.9 kmh 30.17 in1021.7 mb - 0.00 in0.0 mm 0.00 in0.0 mm
12:00 PM 53.7°F12.1°C 37.4°F3.0°C 54% 6.9 mph S11.1 kmh S 11.5 mph18.5 kmh 30.17 in1021.7 mb - 0.00 in0.0 mm 0.00 in0.0 mm
12:10 PM 54.1°F12.3°C 37.4°F3.0°C 53% 6.9 mph S11.1 kmh S 11.5 mph18.5 kmh 30.16 in1021.3 mb - 0.00 in0.0 mm 0.00 in0.0 mm
12:20 PM 55.1°F12.8°C 38.2°F3.4°C 53% 6.9 mph SSW11.1 kmh SSW 10.4 mph16.7 kmh 30.16 in1021.3 mb - 0.00 in0.0 mm 0.00 in0.0 mm
12:30 PM 55.9°F13.3°C 37.5°F3.1°C 50% 11.5 mph SSW18.5 kmh SSW 17.3 mph27.8 kmh 30.15 in1021.0 mb - 0.00 in0.0 mm 0.00 in0.0 mm
12:40 PM 58.1°F14.5°C 40.0°F4.4°C 51% 6.9 mph SSW11.1 kmh SSW 6.9 mph11.1 kmh 30.14 in1020.7 mb - 0.00 in0.0 mm 0.00 in0.0 mm
12:50 PM 59.5°F15.3°C 38.7°F3.7°C 46% 13.8 mph SSW22.2 kmh SSW 20.7 mph33.3 kmh 30.14 in1020.7 mb - 0.00 in0.0 mm 0.00 in0.0 mm
01:00 PM 58.6°F14.8°C 37.8°F3.2°C 46% 13.8 mph SSW22.2 kmh SSW 17.3 mph27.8 kmh 30.14 in1020.7 mb - 0.00 in0.0 mm 0.00 in0.0 mm
01:10 PM 58.9°F14.9°C 39.7°F4.3°C 49% 4.6 mph SSW7.4 kmh SSW 8.1 mph13.0 kmh 30.13 in1020.3 mb - 0.00 in0.0 mm 0.00 in0.0 mm
01:20 PM 59.3°F15.2°C 39.0°F3.9°C 47% 5.8 mph SSW9.3 kmh SSW 4.6 mph7.4 kmh 30.13 in1020.3 mb - 0.00 in0.0 mm 0.00 in0.0 mm
01:30 PM 59.5°F15.3°C 38.1°F3.4°C 45% 11.5 mph SSW18.5 kmh SSW 19.6 mph31.5 kmh 30.12 in1020.0 mb - 0.00 in0.0 mm 0.00 in0.0 mm
01:40 PM 59.6°F15.3°C 38.2°F3.4°C 45% 11.5 mph SSW18.5 kmh SSW 19.6 mph31.5 kmh 30.11 in1019.6 mb - 0.00 in0.0 mm 0.00 in0.0 mm
01:50 PM 59.5°F15.3°C 38.1°F3.4°C 45% 9.2 mph SSW14.8 kmh SSW 16.1 mph25.9 kmh 30.11 in1019.6 mb - 0.00 in0.0 mm 0.00 in0.0 mm
02:00 PM 59.3°F15.2°C 37.9°F3.3°C 45% 10.4 mph SSW16.7 kmh SSW 13.8 mph22.2 kmh 30.10 in1019.3 mb - 0.00 in0.0 mm 0.00 in0.0 mm
02:10 PM 59.0°F15.0°C 39.3°F4.1°C 48% 3.5 mph SSW5.6 kmh SSW 8.1 mph13.0 kmh 30.09 in1019.0 mb - 0.00 in0.0 mm 0.00 in0.0 mm
02:20 PM 59.0°F15.0°C 38.8°F3.8°C 47% 5.8 mph SSW9.3 kmh SSW 9.2 mph14.8 kmh 30.09 in1019.0 mb - 0.00 in0.0 mm 0.00 in0.0 mm
02:30 PM 59.0°F15.0°C 39.3°F4.1°C 48% 6.9 mph SSW11.1 kmh SSW 10.4 mph16.7 kmh 30.08 in1018.6 mb - 0.00 in0.0 mm 0.00 in0.0 mm
02:40 PM 59.1°F15.1°C 40.5°F4.7°C 50% 8.1 mph SSW13.0 kmh SSW 10.4 mph16.7 kmh 30.08 in1018.6 mb - 0.00 in0.0 mm 0.00 in0.0 mm
02:50 PM 59.1°F15.1°C 42.5°F5.8°C 54% 11.5 mph SSW18.5 kmh SSW 17.3 mph27.8 kmh 30.08 in1018.6 mb - 0.00 in0.0 mm 0.00 in0.0 mm
03:00 PM 58.7°F14.8°C 44.9°F7.2°C 60% 11.5 mph SSW18.5 kmh SSW 16.1 mph25.9 kmh 30.08 in1018.6 mb - 0.00 in0.0 mm 0.00 in0.0 mm
03:10 PM 58.7°F14.8°C 45.7°F7.6°C 62% 10.4 mph SSW16.7 kmh SSW 18.4 mph29.6 kmh 30.07 in1018.3 mb - 0.00 in0.0 mm 0.00 in0.0 mm
03:20 PM 58.8°F14.9°C 46.2°F7.9°C 63% 6.9 mph S11.1 kmh S 13.8 mph22.2 kmh 30.07 in1018.3 mb - 0.00 in0.0 mm 0.00 in0.0 mm
03:30 PM 59.0°F15.0°C 46.0°F7.8°C 62% 9.2 mph SSW14.8 kmh SSW 13.8 mph22.2 kmh 30.06 in1017.9 mb - 0.00 in0.0 mm 0.00 in0.0 mm
03:40 PM 58.9°F14.9°C 45.9°F7.7°C 62% 12.7 mph S20.4 kmh S 20.7 mph33.3 kmh 30.07 in1018.3 mb - 0.00 in0.0 mm 0.00 in0.0 mm
03:50 PM 58.5°F14.7°C 46.4°F8.0°C 64% 13.8 mph S22.2 kmh S 19.6 mph31.5 kmh 30.06 in1017.9 mb - 0.00 in0.0 mm 0.00 in0.0 mm
04:00 PM 58.1°F14.5°C 47.5°F8.6°C 68% 12.7 mph SSW20.4 kmh SSW 19.6 mph31.5 kmh 30.07 in1018.3 mb - 0.00 in0.0 mm 0.00 in0.0 mm
04:10 PM 56.5°F13.6°C 48.3°F9.1°C 74% 13.8 mph SSW22.2 kmh SSW 24.2 mph38.9 kmh 30.07 in1018.3 mb - 0.00 in0.0 mm 0.00 in0.0 mm
04:20 PM 55.4°F13.0°C 48.0°F8.9°C 76% 11.5 mph SSW18.5 kmh SSW 19.6 mph31.5 kmh 30.07 in1018.3 mb - 0.00 in0.0 mm 0.00 in0.0 mm
04:30 PM 55.2°F12.9°C 47.7°F8.7°C 76% 10.4 mph S16.7 kmh S 13.8 mph22.2 kmh 30.06 in1017.9 mb - 0.00 in0.0 mm 0.00 in0.0 mm
04:40 PM 55.1°F12.8°C 47.7°F8.7°C 76% 11.5 mph S18.5 kmh S 17.3 mph27.8 kmh 30.06 in1017.9 mb - 0.00 in0.0 mm 0.00 in0.0 mm
04:50 PM 55.4°F13.0°C 48.0°F8.9°C 76% 12.7 mph SSW20.4 kmh SSW 17.3 mph27.8 kmh 30.06 in1017.9 mb - 0.00 in0.0 mm 0.00 in0.0 mm
05:00 PM 55.4°F13.0°C 48.3°F9.1°C 77% 13.8 mph SSW22.2 kmh SSW 19.6 mph31.5 kmh 30.06 in1017.9 mb - 0.00 in0.0 mm 0.00 in0.0 mm
05:10 PM 55.1°F12.8°C 48.7°F9.3°C 79% 8.1 mph SSW13.0 kmh SSW 12.7 mph20.4 kmh 30.06 in1017.9 mb - 0.00 in0.0 mm 0.00 in0.0 mm
05:20 PM 55.1°F12.8°C 49.0°F9.4°C 80% 9.2 mph SW14.8 kmh SW 11.5 mph18.5 kmh 30.06 in1017.9 mb - 0.00 in0.0 mm 0.00 in0.0 mm
05:30 PM 55.3°F12.9°C 48.8°F9.3°C 79% 8.1 mph SSW13.0 kmh SSW 11.5 mph18.5 kmh 30.06 in1017.9 mb - 0.00 in0.0 mm 0.00 in0.0 mm
05:40 PM 56.0°F13.3°C 48.5°F9.2°C 76% 6.9 mph SSW11.1 kmh SSW 17.3 mph27.8 kmh 30.05 in1017.6 mb - 0.00 in0.0 mm 0.00 in0.0 mm
05:50 PM 56.8°F13.8°C 48.2°F9.0°C 73% 12.7 mph SSW20.4 kmh SSW 21.9 mph35.2 kmh 30.06 in1017.9 mb - 0.00 in0.0 mm 0.00 in0.0 mm
06:00 PM 56.2°F13.4°C 48.4°F9.1°C 75% 9.2 mph SSW14.8 kmh SSW 19.6 mph31.5 kmh 30.06 in1017.9 mb - 0.00 in0.0 mm 0.00 in0.0 mm
06:10 PM 55.6°F13.1°C 48.2°F9.0°C 76% 12.7 mph SSW20.4 kmh SSW 17.3 mph27.8 kmh 30.06 in1017.9 mb - 0.00 in0.0 mm 0.00 in0.0 mm
06:20 PM 55.5°F13.1°C 47.7°F8.7°C 75% 12.7 mph SSW20.4 kmh SSW 19.6 mph31.5 kmh 30.06 in1017.9 mb - 0.00 in0.0 mm 0.00 in0.0 mm
06:30 PM 55.4°F13.0°C 47.6°F8.7°C 75% 13.8 mph SSW22.2 kmh SSW 18.4 mph29.6 kmh 30.06 in1017.9 mb - 0.00 in0.0 mm 0.00 in0.0 mm
06:40 PM 54.8°F12.7°C 48.0°F8.9°C 78% 13.8 mph S22.2 kmh S 19.6 mph31.5 kmh 30.06 in1017.9 mb - 0.00 in0.0 mm 0.00 in0.0 mm
06:50 PM 54.1°F12.3°C 48.1°F8.9°C 80% 11.5 mph S18.5 kmh S 19.6 mph31.5 kmh 30.07 in1018.3 mb - 0.00 in0.0 mm 0.00 in0.0 mm
07:00 PM 53.9°F12.2°C 47.9°F8.8°C 80% 8.1 mph SSW13.0 kmh SSW 17.3 mph27.8 kmh 30.07 in1018.3 mb - 0.00 in0.0 mm 0.00 in0.0 mm
07:10 PM 53.8°F12.1°C 48.1°F8.9°C 81% 5.8 mph SSW9.3 kmh SSW 6.9 mph11.1 kmh 30.07 in1018.3 mb - 0.00 in0.0 mm 0.00 in0.0 mm
07:20 PM 53.7°F12.1°C 48.7°F9.3°C 83% 10.4 mph SSW16.7 kmh SSW 16.1 mph25.9 kmh 30.07 in1018.3 mb - 0.00 in0.0 mm 0.00 in0.0 mm
07:30 PM 53.6°F12.0°C 48.5°F9.2°C 83% 8.1 mph SSW13.0 kmh SSW 11.5 mph18.5 kmh 30.06 in1017.9 mb - 0.00 in0.0 mm 0.00 in0.0 mm
07:40 PM 53.4°F11.9°C 48.4°F9.1°C 83% 9.2 mph SSW14.8 kmh SSW 13.8 mph22.2 kmh 30.06 in1017.9 mb - 0.00 in0.0 mm 0.00 in0.0 mm
07:50 PM 53.5°F11.9°C 48.1°F8.9°C 82% 10.4 mph SSW16.7 kmh SSW 18.4 mph29.6 kmh 30.06 in1017.9 mb - 0.00 in0.0 mm 0.00 in0.0 mm
08:00 PM 53.7°F12.1°C 48.0°F8.9°C 81% 6.9 mph SSW11.1 kmh SSW 12.7 mph20.4 kmh 30.06 in1017.9 mb - 0.00 in0.0 mm 0.00 in0.0 mm
08:10 PM 53.7°F12.1°C 47.7°F8.7°C 80% 9.2 mph S14.8 kmh S 27.6 mph44.4 kmh 30.06 in1017.9 mb - 0.00 in0.0 mm 0.00 in0.0 mm
08:20 PM 53.8°F12.1°C 47.4°F8.6°C 79% 10.4 mph SSW16.7 kmh SSW 11.5 mph18.5 kmh 30.06 in1017.9 mb - 0.00 in0.0 mm 0.00 in0.0 mm
08:30 PM 53.8°F12.1°C 46.8°F8.2°C 77% 9.2 mph SSW14.8 kmh SSW 18.4 mph29.6 kmh 30.06 in1017.9 mb - 0.00 in0.0 mm 0.00 in0.0 mm
08:40 PM 53.7°F12.1°C 46.7°F8.2°C 77% 6.9 mph SSW11.1 kmh SSW 17.3 mph27.8 kmh 30.06 in1017.9 mb - 0.00 in0.0 mm 0.00 in0.0 mm
08:50 PM 53.6°F12.0°C 46.6°F8.1°C 77% 11.5 mph SSW18.5 kmh SSW 21.9 mph35.2 kmh 30.06 in1017.9 mb - 0.00 in0.0 mm 0.00 in0.0 mm
09:00 PM 53.6°F12.0°C 46.5°F8.1°C 77% 6.9 mph SSW11.1 kmh SSW 15.0 mph24.1 kmh 30.06 in1017.9 mb - 0.00 in0.0 mm 0.00 in0.0 mm
09:10 PM 53.5°F11.9°C 46.5°F8.1°C 77% 9.2 mph SSW14.8 kmh SSW 13.8 mph22.2 kmh 30.07 in1018.3 mb - 0.00 in0.0 mm 0.00 in0.0 mm
09:20 PM 53.4°F11.9°C 46.7°F8.2°C 78% 8.1 mph SSW13.0 kmh SSW 12.7 mph20.4 kmh 30.07 in1018.3 mb - 0.00 in0.0 mm 0.00 in0.0 mm
09:30 PM 53.3°F11.8°C 46.6°F8.1°C 78% 8.1 mph SW13.0 kmh SW 9.2 mph14.8 kmh 30.07 in1018.3 mb - 0.00 in0.0 mm 0.00 in0.0 mm
09:40 PM 53.3°F11.8°C 47.0°F8.3°C 79% 8.1 mph SSW13.0 kmh SSW 15.0 mph24.1 kmh 30.07 in1018.3 mb - 0.00 in0.0 mm 0.00 in0.0 mm
09:50 PM 53.0°F11.7°C 46.7°F8.2°C 79% 13.8 mph SSW22.2 kmh SSW 20.7 mph33.3 kmh 30.06 in1017.9 mb - 0.00 in0.0 mm 0.00 in0.0 mm
10:00 PM 52.9°F11.6°C 46.9°F8.3°C 80% 9.2 mph SSW14.8 kmh SSW 11.5 mph18.5 kmh 30.07 in1018.3 mb - 0.00 in0.0 mm 0.00 in0.0 mm
10:10 PM 52.8°F11.6°C 47.1°F8.4°C 81% 11.5 mph SSW18.5 kmh SSW 16.1 mph25.9 kmh 30.07 in1018.3 mb - 0.00 in0.0 mm 0.00 in0.0 mm
10:20 PM 52.6°F11.4°C 47.0°F8.3°C 81% 9.2 mph SW14.8 kmh SW 16.1 mph25.9 kmh 30.07 in1018.3 mb - 0.00 in0.0 mm 0.00 in0.0 mm
10:30 PM 52.5°F11.4°C 46.8°F8.2°C 81% 9.2 mph S14.8 kmh S 15.0 mph24.1 kmh 30.07 in1018.3 mb - 0.00 in0.0 mm 0.00 in0.0 mm
10:40 PM 52.5°F11.4°C 46.8°F8.2°C 81% 9.2 mph SSW14.8 kmh SSW 16.1 mph25.9 kmh 30.08 in1018.6 mb - 0.00 in0.0 mm 0.00 in0.0 mm
10:50 PM 52.3°F11.3°C 47.0°F8.3°C 82% 9.2 mph SSW14.8 kmh SSW 13.8 mph22.2 kmh 30.08 in1018.6 mb - 0.00 in0.0 mm 0.00 in0.0 mm
11:00 PM 52.1°F11.2°C 46.8°F8.2°C 82% 10.4 mph SSW16.7 kmh SSW 13.8 mph22.2 kmh 30.08 in1018.6 mb - 0.00 in0.0 mm 0.00 in0.0 mm
11:10 PM 52.0°F11.1°C 46.6°F8.1°C 82% 10.4 mph SSW16.7 kmh SSW 16.1 mph25.9 kmh 30.07 in1018.3 mb - 0.00 in0.0 mm 0.00 in0.0 mm
11:20 PM 51.9°F11.1°C 46.6°F8.1°C 82% 10.4 mph S16.7 kmh S 15.0 mph24.1 kmh 30.07 in1018.3 mb - 0.00 in0.0 mm 0.00 in0.0 mm
11:30 PM 51.8°F11.0°C 46.5°F8.1°C 82% 13.8 mph S22.2 kmh S 25.3 mph40.7 kmh 30.07 in1018.3 mb - 0.00 in0.0 mm 0.00 in0.0 mm
11:40 PM 51.7°F10.9°C 46.4°F8.0°C 82% 8.1 mph SSW13.0 kmh SSW 11.5 mph18.5 kmh 30.07 in1018.3 mb - 0.00 in0.0 mm 0.00 in0.0 mm
11:50 PM 51.6°F10.9°C 46.3°F7.9°C 82% 8.1 mph SSW13.0 kmh SSW 11.5 mph18.5 kmh 30.07 in1018.3 mb - 0.00 in0.0 mm 0.00 in0.0 mm